Superferry II — SWKV — position and weather

sailwx.info

Track history (hours):
 
Tides and Currents Weather Stations Pressure Air Temp Water Temp Dewpoint Dewpoint Depression Visibility Wind Speed Wind Dir Waves Ship Positions

Superferry II

Last reported at 2015-Jul-03 12:33 UTC. Time now 2015-Jul-03 15:34 UTC.
Position N 37°42' E 024°54'.

Length 122 m; draft 4.7 m.

Type: Passenger vessel. MMSI: 237001000.

Date/timePositionNaut miles runAvg speedWind from/ knotsBaromVisibWave heightAir tempDewpointWater temp
2015-Jul-03 12:33N 37°42' E 024°54'1515.4
2015-Jul-03 11:33N 37°32' E 025°09'9 9.2
2015-Jul-03 10:33N 37°28' E 025°19'1 1.0
2015-Jul-03 09:33N 37°28' E 025°18'1312.5
2015-Jul-03 08:33N 37°34' E 025°05'4915.6
2015-Jul-03 05:23N 37°59' E 024°11'5 0.4
2015-Jul-02 15:32N 38°01' E 024°04'4414.9
2015-Jul-02 12:33N 37°42' E 024°55'1514.9
2015-Jul-02 11:33N 37°32' E 025°09'9 9.2
2015-Jul-02 10:34N 37°28' E 025°19'1 1.4
2015-Jul-02 09:34N 37°27' E 025°18'1312.8
2015-Jul-02 08:33N 37°34' E 025°04'12 0.6
2015-Jul-01 12:33N 37°43' E 024°53'1716.7
2015-Jul-01 11:33N 37°32' E 025°09'9 9.1
2015-Jul-01 10:34N 37°28' E 025°19'4 3.7
2015-Jul-01 09:34N 37°28' E 025°15'1010.0
2015-Jul-01 08:33N 37°34' E 025°05'5015.9
2015-Jul-01 05:26N 37°59' E 024°10'8 0.6
2015-Jun-30 15:31N 38°01' E 024°01'4615.4
2015-Jun-30 12:32N 37°42' E 024°54'1616.5
2015-Jun-30 11:33N 37°32' E 025°09'9 9.1
2015-Jun-30 10:33N 37°28' E 025°19'0 0.0
2015-Jun-30 09:33N 37°28' E 025°19'1010.0
2015-Jun-30 08:33N 37°32' E 025°08'5116.5
2015-Jun-30 05:29N 37°58' E 024°13'9 1.0
2015-Jun-29 20:34N 38°01' E 024°02'9 2.7
2015-Jun-29 17:08N 37°58' E 024°13'36 7.9
2015-Jun-29 12:33N 37°42' E 024°54'1515.6
2015-Jun-29 11:33N 37°32' E 025°09'9 9.1
2015-Jun-29 10:33N 37°28' E 025°19'0 0.0
2015-Jun-29 09:34N 37°28' E 025°19'9 9.2
2015-Jun-29 08:33N 37°32' E 025°09'5516.6
2015-Jun-29 05:14N 37°59' E 024°08'5 0.5
2015-Jun-28 20:30N 38°01' E 024°03'3 0.7
2015-Jun-28 16:33N 38°00' E 024°06'1 0.8
2015-Jun-28 15:33N 38°01' E 024°05'4214.0
2015-Jun-28 12:33N 37°43' E 024°54'1616.3
2015-Jun-28 11:33N 37°32' E 025°09'9 9.1
2015-Jun-28 10:33N 37°28' E 025°19'0 0.0
2015-Jun-28 09:33N 37°28' E 025°19'1010.4
2015-Jun-28 08:33N 37°32' E 025°08'5016.1
2015-Jun-28 05:27N 37°58' E 024°14'9 0.7
2015-Jun-27 16:11N 38°01' E 024°02'4215.5
2015-Jun-27 13:29N 37°45' E 024°51'1718.2
2015-Jun-27 12:33N 37°33' E 025°06'1211.7
2015-Jun-27 11:33N 37°28' E 025°19'0 0.1
2015-Jun-27 10:33N 37°28' E 025°19'2 1.8
2015-Jun-27 09:33N 37°28' E 025°17'1212.1
2015-Jun-27 08:33N 37°34' E 025°04'4815.5
2015-Jun-27 05:27N 37°58' E 024°12'7 0.8
2015-Jun-26 20:29N 38°01' E 024°03'13 3.9
2015-Jun-26 17:09N 37°57' E 024°19'1118.9
2015-Jun-26 16:34N 38°00' E 024°05'3 2.8
2015-Jun-26 15:24N 38°01' E 024°01'4515.7
2015-Jun-26 12:33N 37°43' E 024°53'1717.0
2015-Jun-26 11:33N 37°32' E 025°09'9 9.2
2015-Jun-26 10:33N 37°28' E 025°19'9 9.2
2015-Jun-26 09:33N 37°32' E 025°09'16 0.7
2015-Jun-25 12:34N 37°42' E 024°54'1615.7
2015-Jun-25 11:33N 37°32' E 025°09'9 9.2
2015-Jun-25 10:33N 37°28' E 025°20'2 2.0
2015-Jun-25 09:33N 37°28' E 025°17'1211.6
2015-Jun-25 08:33N 37°34' E 025°04'4815.6
2015-Jun-25 05:31N 37°58' E 024°13'10 8.4
2015-Jun-25 04:20N 38°01' E 024°01'0 0.0
2015-Jun-25 03:31N 38°01' E 024°01'0 0.0
2015-Jun-25 02:33N 38°01' E 024°01'0 0.0
2015-Jun-25 01:33N 38°01' E 024°01'0 0.0
2015-Jun-25 00:33N 38°01' E 024°01'0 0.0
2015-Jun-24 23:33N 38°01' E 024°01'0 0.0
2015-Jun-24 22:28N 38°01' E 024°01'0 0.0
2015-Jun-24 21:32N 38°01' E 024°01'0 0.0
2015-Jun-24 20:32N 38°01' E 024°01'0 0.0
2015-Jun-24 19:33N 38°01' E 024°01'0 0.0
2015-Jun-24 18:34N 38°01' E 024°01'0 0.0
2015-Jun-24 17:30N 38°01' E 024°01'0 0.0
2015-Jun-24 16:31N 38°01' E 024°01'1 1.0
2015-Jun-24 15:30N 38°01' E 024°02'4615.6
2015-Jun-24 12:34N 37°42' E 024°55'1515.0
2015-Jun-24 11:33N 37°32' E 025°09'9 9.1
2015-Jun-24 10:33N 37°28' E 025°19'0 0.0
2015-Jun-24 09:33N 37°28' E 025°19'1110.7
2015-Jun-24 08:34N 37°33' E 025°07'4916.4
2015-Jun-24 05:32N 37°58' E 024°14'  
Track history (hours):
 
Tides and Currents Weather Stations Pressure Air Temp Water Temp Dewpoint Dewpoint Depression Visibility Wind Speed Wind Dir Waves Ship Positions

Superferry II

Last reported at 2015-Jul-03 12:33 UTC. Time now 2015-Jul-03 15:34 UTC.
Position N 37°42' E 024°54'.

Length 122 m; draft 4.7 m.

Type: Passenger vessel. MMSI: 237001000.

Date/timePositionNaut miles runAvg speedWind from/ knotsBaromVisibWave heightAir tempDewpointWater temp
2015-Jul-03 12:33N 37°42' E 024°54'1515.4
2015-Jul-03 11:33N 37°32' E 025°09'9 9.2
2015-Jul-03 10:33N 37°28' E 025°19'1 1.0
2015-Jul-03 09:33N 37°28' E 025°18'1312.5
2015-Jul-03 08:33N 37°34' E 025°05'4915.6
2015-Jul-03 05:23N 37°59' E 024°11'5 0.4
2015-Jul-02 15:32N 38°01' E 024°04'4414.9
2015-Jul-02 12:33N 37°42' E 024°55'1514.9
2015-Jul-02 11:33N 37°32' E 025°09'9 9.2
2015-Jul-02 10:34N 37°28' E 025°19'1 1.4
2015-Jul-02 09:34N 37°27' E 025°18'1312.8
2015-Jul-02 08:33N 37°34' E 025°04'12 0.6
2015-Jul-01 12:33N 37°43' E 024°53'1716.7
2015-Jul-01 11:33N 37°32' E 025°09'9 9.1
2015-Jul-01 10:34N 37°28' E 025°19'4 3.7
2015-Jul-01 09:34N 37°28' E 025°15'1010.0
2015-Jul-01 08:33N 37°34' E 025°05'5015.9
2015-Jul-01 05:26N 37°59' E 024°10'8 0.6
2015-Jun-30 15:31N 38°01' E 024°01'4615.4
2015-Jun-30 12:32N 37°42' E 024°54'1616.5
2015-Jun-30 11:33N 37°32' E 025°09'9 9.1
2015-Jun-30 10:33N 37°28' E 025°19'0 0.0
2015-Jun-30 09:33N 37°28' E 025°19'1010.0
2015-Jun-30 08:33N 37°32' E 025°08'5116.5
2015-Jun-30 05:29N 37°58' E 024°13'9 1.0
2015-Jun-29 20:34N 38°01' E 024°02'9 2.7
2015-Jun-29 17:08N 37°58' E 024°13'36 7.9
2015-Jun-29 12:33N 37°42' E 024°54'1515.6
2015-Jun-29 11:33N 37°32' E 025°09'9 9.1
2015-Jun-29 10:33N 37°28' E 025°19'0 0.0
2015-Jun-29 09:34N 37°28' E 025°19'9 9.2
2015-Jun-29 08:33N 37°32' E 025°09'5516.6
2015-Jun-29 05:14N 37°59' E 024°08'5 0.5
2015-Jun-28 20:30N 38°01' E 024°03'3 0.7
2015-Jun-28 16:33N 38°00' E 024°06'1 0.8
2015-Jun-28 15:33N 38°01' E 024°05'4214.0
2015-Jun-28 12:33N 37°43' E 024°54'1616.3
2015-Jun-28 11:33N 37°32' E 025°09'9 9.1
2015-Jun-28 10:33N 37°28' E 025°19'0 0.0
2015-Jun-28 09:33N 37°28' E 025°19'1010.4
2015-Jun-28 08:33N 37°32' E 025°08'5016.1
2015-Jun-28 05:27N 37°58' E 024°14'9 0.7
2015-Jun-27 16:11N 38°01' E 024°02'4215.5
2015-Jun-27 13:29N 37°45' E 024°51'1718.2
2015-Jun-27 12:33N 37°33' E 025°06'1211.7
2015-Jun-27 11:33N 37°28' E 025°19'0 0.1
2015-Jun-27 10:33N 37°28' E 025°19'2 1.8
2015-Jun-27 09:33N 37°28' E 025°17'1212.1
2015-Jun-27 08:33N 37°34' E 025°04'4815.5
2015-Jun-27 05:27N 37°58' E 024°12'7 0.8
2015-Jun-26 20:29N 38°01' E 024°03'13 3.9
2015-Jun-26 17:09N 37°57' E 024°19'1118.9
2015-Jun-26 16:34N 38°00' E 024°05'3 2.8
2015-Jun-26 15:24N 38°01' E 024°01'4515.7
2015-Jun-26 12:33N 37°43' E 024°53'1717.0
2015-Jun-26 11:33N 37°32' E 025°09'9 9.2
2015-Jun-26 10:33N 37°28' E 025°19'9 9.2
2015-Jun-26 09:33N 37°32' E 025°09'16 0.7
2015-Jun-25 12:34N 37°42' E 024°54'1615.7
2015-Jun-25 11:33N 37°32' E 025°09'9 9.2
2015-Jun-25 10:33N 37°28' E 025°20'2 2.0
2015-Jun-25 09:33N 37°28' E 025°17'1211.6
2015-Jun-25 08:33N 37°34' E 025°04'4815.6
2015-Jun-25 05:31N 37°58' E 024°13'10 8.4
2015-Jun-25 04:20N 38°01' E 024°01'0 0.0
2015-Jun-25 03:31N 38°01' E 024°01'0 0.0
2015-Jun-25 02:33N 38°01' E 024°01'0 0.0
2015-Jun-25 01:33N 38°01' E 024°01'0 0.0
2015-Jun-25 00:33N 38°01' E 024°01'0 0.0
2015-Jun-24 23:33N 38°01' E 024°01'0 0.0
2015-Jun-24 22:28N 38°01' E 024°01'0 0.0
2015-Jun-24 21:32N 38°01' E 024°01'0 0.0
2015-Jun-24 20:32N 38°01' E 024°01'0 0.0
2015-Jun-24 19:33N 38°01' E 024°01'0 0.0
2015-Jun-24 18:34N 38°01' E 024°01'0 0.0
2015-Jun-24 17:30N 38°01' E 024°01'0 0.0
2015-Jun-24 16:31N 38°01' E 024°01'1 1.0
2015-Jun-24 15:30N 38°01' E 024°02'4615.6
2015-Jun-24 12:34N 37°42' E 024°55'1515.0
2015-Jun-24 11:33N 37°32' E 025°09'9 9.1
2015-Jun-24 10:33N 37°28' E 025°19'0 0.0
2015-Jun-24 09:33N 37°28' E 025°19'1110.7
2015-Jun-24 08:34N 37°33' E 025°07'4916.4
2015-Jun-24 05:32N 37°58' E 024°14'  

Dump ship's entire track history